CheckWX is a tool to help pilots better visualize weather data.  It is not intended as a substitute for an official pre-flight weather briefing.

22:48:35 UTC

57C METAR
East Troy Municipal Airport
East Troy, Wisconsin, USA
Current

14 mins ago

K57C 252235Z AUTO 09007KT 10SM CLR 04/M12 A3031 RMK AO2 T00421119
Observed
Mar-25 @ 22:35 UTC
Wind
  • 090° at 7 KTS
Visibility
10 SM
Flight Rules
VFR
Cloud Levels
  • Clear skies
Temperature
C / 39°F
Dewpoint
-12°C / 10°F
Humidity
30%
Altimeter
30.31" Hg
Pressure
1026.42 hPa
Previous

34 mins ago

K57C 252215Z AUTO 06006KT 10SM CLR 05/M13 A3031 RMK AO2 T00461128
Observed
Mar-25 @ 22:15 UTC
Wind
  • 060° at 6 KTS
Visibility
10 SM
Flight Rules
VFR
Cloud Levels
  • Clear skies
Temperature
C / 41°F
Dewpoint
-13°C / 9°F
Humidity
26%
Altimeter
30.31" Hg
Pressure
1026.42 hPa
Previous

54 mins ago

K57C 252155Z AUTO 06007KT 10SM CLR 05/M14 A3031 RMK AO2 LTG DSNT SE T00491143
Observed
Mar-25 @ 21:55 UTC
Wind
  • 060° at 7 KTS
Visibility
10 SM
Flight Rules
VFR
Cloud Levels
  • Clear skies
Temperature
C / 41°F
Dewpoint
-14°C / 7°F
Humidity
24%
Altimeter
30.31" Hg
Pressure
1026.42 hPa